createdAt,value
2018-12-23T00:02:05.049Z,101173.98
2018-12-23T00:04:33.385Z,101177.91
2018-12-23T00:07:01.710Z,101179.59
2018-12-23T00:09:30.043Z,101180.66
2018-12-23T00:11:58.405Z,101187.52
2018-12-23T00:14:26.734Z,101188.57
2018-12-23T00:16:55.058Z,101193.88
2018-12-23T00:19:23.376Z,101194.73
2018-12-23T00:21:51.716Z,101201.86
2018-12-23T00:24:20.500Z,101202.05
2018-12-23T00:26:48.827Z,101200.02
2018-12-23T00:29:17.169Z,101206.55
2018-12-23T00:31:45.741Z,101207.03
2018-12-23T00:34:13.880Z,101212.69
2018-12-23T00:36:42.210Z,101214.61
2018-12-23T00:39:10.536Z,101217.21
2018-12-23T00:41:38.864Z,101216.19
2018-12-23T00:44:07.238Z,101215.29
2018-12-23T00:46:35.557Z,101222.12
2018-12-23T00:49:04.447Z,101228.92
2018-12-23T00:51:33.405Z,101229.50
2018-12-23T00:54:02.481Z,101231.58
2018-12-23T00:56:30.812Z,101230.72
2018-12-23T00:58:59.149Z,101237.83
2018-12-23T01:01:27.560Z,101244.62
2018-12-23T01:03:55.829Z,101245.66
2018-12-23T01:06:24.208Z,101248.52
2018-12-23T01:08:52.834Z,101248.08
2018-12-23T01:11:20.951Z,101253.77
2018-12-23T01:13:49.459Z,101263.04
2018-12-23T01:16:17.805Z,101266.14
2018-12-23T01:18:46.179Z,101273.38
2018-12-23T01:21:14.512Z,101274.23
2018-12-23T01:23:42.867Z,101272.75
2018-12-23T01:26:12.597Z,101272.77
2018-12-23T01:28:39.561Z,101271.35
2018-12-23T01:31:07.886Z,101268.63
2018-12-23T01:33:36.240Z,101272.47
2018-12-23T01:36:04.650Z,101274.39
2018-12-23T01:38:32.998Z,101273.72
2018-12-23T01:41:01.345Z,101278.95
2018-12-23T01:43:29.679Z,101277.98
2018-12-23T01:45:58.039Z,101280.08
2018-12-23T01:48:26.397Z,101283.20
2018-12-23T01:50:54.997Z,101283.23
2018-12-23T01:53:23.164Z,101291.08
2018-12-23T01:55:52.501Z,101294.41
2018-12-23T01:58:20.880Z,101296.42
2018-12-23T02:00:49.229Z,101302.60
2018-12-23T02:03:17.557Z,101310.82
2018-12-23T02:05:46.394Z,101314.61
2018-12-23T02:08:14.520Z,101308.38
2018-12-23T02:10:43.080Z,101309.43
2018-12-23T02:13:11.245Z,101310.79
2018-12-23T02:15:39.567Z,101313.46
2018-12-23T02:18:07.976Z,101316.83
2018-12-23T02:20:36.366Z,101311.91
2018-12-23T02:23:04.762Z,101308.06
2018-12-23T02:25:33.625Z,101313.66
2018-12-23T02:28:01.973Z,101305.42
2018-12-23T02:30:30.337Z,101306.70
2018-12-23T02:32:59.094Z,101309.38
2018-12-23T02:35:27.455Z,101302.25
2018-12-23T02:37:55.805Z,101302.25
2018-12-23T02:40:24.142Z,101300.88
2018-12-23T02:42:52.540Z,101299.98
2018-12-23T02:45:21.102Z,101305.28
2018-12-23T02:47:49.739Z,101306.01
2018-12-23T02:50:18.067Z,101306.32
2018-12-23T02:52:46.901Z,101310.35
2018-12-23T02:55:15.031Z,101316.89
2018-12-23T02:57:43.365Z,101318.83
2018-12-23T03:00:11.691Z,101322.86
2018-12-23T03:02:40.573Z,101324.11
2018-12-23T03:05:08.921Z,101323.09
2018-12-23T03:07:37.268Z,101321.44
2018-12-23T03:10:05.589Z,101329.70
2018-12-23T03:12:33.943Z,101327.35
2018-12-23T03:15:02.277Z,101324.06
2018-12-23T03:17:31.002Z,101329.53
2018-12-23T03:19:59.350Z,101331.44
2018-12-23T03:22:29.677Z,101327.25
2018-12-23T03:24:58.006Z,101330.42
2018-12-23T03:27:26.339Z,101334.79
2018-12-23T03:29:54.655Z,101328.77
2018-12-23T03:32:22.993Z,101335.55
2018-12-23T03:34:51.302Z,101331.41
2018-12-23T03:37:19.624Z,101338.33
2018-12-23T03:39:47.984Z,101339.45
2018-12-23T03:42:16.305Z,101338.34
2018-12-23T03:44:44.955Z,101340.00
2018-12-23T03:47:13.283Z,101347.59
2018-12-23T03:49:42.051Z,101346.06
2018-12-23T03:52:10.401Z,101344.99
2018-12-23T03:54:38.765Z,101339.86
2018-12-23T03:57:07.104Z,101342.73
2018-12-23T03:59:35.437Z,101340.95
2018-12-23T04:02:03.795Z,101344.05
2018-12-23T04:04:32.104Z,101347.53
2018-12-23T04:07:00.420Z,101346.33
2018-12-23T04:09:28.745Z,101345.89
2018-12-23T04:11:57.069Z,101349.70
2018-12-23T04:14:25.417Z,101349.31
2018-12-23T04:16:53.758Z,101353.70
2018-12-23T04:19:22.091Z,101355.33
2018-12-23T04:21:50.422Z,101355.11
2018-12-23T04:24:18.752Z,101349.84
2018-12-23T04:26:47.857Z,101348.41
2018-12-23T04:29:16.192Z,101346.01
2018-12-23T04:31:44.580Z,101339.97
2018-12-23T04:34:12.925Z,101336.86
2018-12-23T04:36:41.265Z,101338.73
2018-12-23T04:39:09.639Z,101332.83
2018-12-23T04:41:37.959Z,101341.48
2018-12-23T04:44:06.359Z,101340.36
2018-12-23T04:46:34.687Z,101345.61
2018-12-23T04:49:03.795Z,101348.65
2018-12-23T04:51:32.333Z,101352.34
2018-12-23T04:54:00.672Z,101353.86
2018-12-23T04:56:29.036Z,101359.48
2018-12-23T04:58:57.364Z,101359.92
2018-12-23T05:01:25.709Z,101353.80
2018-12-23T05:03:54.021Z,101358.14
2018-12-23T05:06:22.345Z,101351.76
2018-12-23T05:08:50.668Z,101357.02
2018-12-23T05:11:18.999Z,101354.22
2018-12-23T05:13:47.328Z,101355.81
2018-12-23T05:16:15.648Z,101357.17
2018-12-23T05:18:43.977Z,101360.20
2018-12-23T05:21:12.299Z,101359.08
2018-12-23T05:23:40.623Z,101358.52
2018-12-23T05:26:08.958Z,101360.92
2018-12-23T05:28:37.336Z,101360.31
2018-12-23T05:31:05.679Z,101359.22
2018-12-23T05:33:34.000Z,101355.95
2018-12-23T05:36:02.328Z,101356.84
2018-12-23T05:38:30.643Z,101361.19
2018-12-23T05:40:58.969Z,101363.60
2018-12-23T05:43:27.292Z,101363.47
2018-12-23T05:45:55.617Z,101360.46
2018-12-23T05:48:23.955Z,101360.73
2018-12-23T05:50:52.260Z,101365.72
2018-12-23T05:53:20.864Z,101364.44
2018-12-23T05:55:48.649Z,101364.36
2018-12-23T05:58:16.976Z,101363.72
2018-12-23T06:00:45.291Z,101365.45
2018-12-23T06:03:13.618Z,101365.84
2018-12-23T06:05:41.947Z,101366.28
2018-12-23T06:08:10.273Z,101368.51
2018-12-23T06:10:38.607Z,101372.85
2018-12-23T06:13:06.919Z,101378.39
2018-12-23T06:15:35.264Z,101380.45
2018-12-23T06:18:03.578Z,101383.66
2018-12-23T06:20:31.898Z,101379.55
2018-12-23T06:23:00.234Z,101383.42
2018-12-23T06:25:28.558Z,101385.31
2018-12-23T06:27:56.894Z,101387.34
2018-12-23T06:30:25.218Z,101386.96
2018-12-23T06:32:53.553Z,101384.06
2018-12-23T06:35:21.898Z,101389.88
2018-12-23T06:37:50.886Z,101394.02
2018-12-23T06:40:19.211Z,101389.52
2018-12-23T06:42:47.808Z,101387.80
2018-12-23T06:45:15.908Z,101389.45
2018-12-23T06:47:44.251Z,101388.59
2018-12-23T06:50:12.591Z,101394.75
2018-12-23T06:52:41.137Z,101394.47
2018-12-23T06:55:09.270Z,101398.37
2018-12-23T06:57:37.919Z,101392.72
2018-12-23T07:00:06.259Z,101394.05
2018-12-23T07:02:34.597Z,101394.97
2018-12-23T07:05:03.159Z,101392.84
2018-12-23T07:07:31.266Z,101382.84
2018-12-23T07:09:59.616Z,101377.23
2018-12-23T07:12:27.956Z,101372.77
2018-12-23T07:14:56.300Z,101377.38
2018-12-23T07:17:24.667Z,101369.83
2018-12-23T07:19:53.059Z,101374.09
2018-12-23T07:22:21.395Z,101372.78
2018-12-23T07:24:49.736Z,101376.48
2018-12-23T07:27:18.068Z,101378.61
2018-12-23T07:29:46.397Z,101381.84
2018-12-23T07:32:14.748Z,101384.34
2018-12-23T07:34:43.131Z,101377.09
2018-12-23T07:37:11.457Z,101380.09
2018-12-23T07:39:39.790Z,101377.69
2018-12-23T07:42:08.109Z,101379.94
2018-12-23T07:44:36.458Z,101379.93
2018-12-23T07:47:04.821Z,101373.85
2018-12-23T07:49:33.163Z,101375.82
2018-12-23T07:52:01.500Z,101379.22
2018-12-23T07:54:29.889Z,101378.14
2018-12-23T07:56:58.217Z,101373.91
2018-12-23T07:59:26.573Z,101374.59
2018-12-23T08:01:56.955Z,101371.64
2018-12-23T08:04:23.322Z,101369.28
2018-12-23T08:06:51.617Z,101373.91
2018-12-23T08:09:20.196Z,101381.42
2018-12-23T08:11:48.313Z,101384.38
2018-12-23T08:14:16.657Z,101382.09
2018-12-23T08:16:45.001Z,101380.89
2018-12-23T08:19:13.349Z,101383.90
2018-12-23T08:21:41.684Z,101384.42
2018-12-23T08:24:10.021Z,101384.20
2018-12-23T08:26:38.402Z,101388.75
2018-12-23T08:29:06.750Z,101388.63
2018-12-23T08:31:35.102Z,101387.95
2018-12-23T08:34:03.432Z,101387.23
2018-12-23T08:36:31.763Z,101383.92
2018-12-23T08:39:00.131Z,101380.24
2018-12-23T08:41:28.452Z,101375.61
2018-12-23T08:43:56.796Z,101374.25
2018-12-23T08:46:25.147Z,101376.48
2018-12-23T08:48:53.536Z,101378.16
2018-12-23T08:51:21.881Z,101380.04
2018-12-23T08:53:50.241Z,101371.20
2018-12-23T08:56:19.656Z,101371.95
2018-12-23T08:58:48.219Z,101369.16
2018-12-23T09:01:16.356Z,101377.13
2018-12-23T09:03:44.723Z,101371.34
2018-12-23T09:06:13.944Z,101368.33
2018-12-23T09:08:42.291Z,101366.83
2018-12-23T09:11:10.877Z,101359.67
2018-12-23T09:13:39.366Z,101358.27
2018-12-23T09:16:07.501Z,101357.77
2018-12-23T09:18:36.135Z,101358.38
2018-12-23T09:21:04.473Z,101354.88
2018-12-23T09:23:32.811Z,101353.91
2018-12-23T09:26:01.159Z,101350.10
2018-12-23T09:28:29.834Z,101355.25
2018-12-23T09:30:58.221Z,101351.83
2018-12-23T09:33:26.608Z,101347.17
2018-12-23T09:35:55.859Z,101352.34
2018-12-23T09:38:24.188Z,101346.14
2018-12-23T09:40:52.534Z,101344.91
2018-12-23T09:43:20.875Z,101339.91
2018-12-23T09:45:49.434Z,101340.84
2018-12-23T09:48:17.607Z,101341.96
2018-12-23T09:50:46.205Z,101335.34
2018-12-23T09:53:14.545Z,101337.03
2018-12-23T09:55:42.885Z,101328.13
2018-12-23T09:58:11.245Z,101323.16
2018-12-23T10:00:39.963Z,101318.87
2018-12-23T10:03:08.365Z,101312.11
2018-12-23T10:05:36.702Z,101313.72
2018-12-23T10:08:09.928Z,101308.27
2018-12-23T10:10:33.885Z,101303.71
2018-12-23T10:13:02.330Z,101302.19
2018-12-23T10:15:30.583Z,101300.04
2018-12-23T10:17:58.943Z,101300.22
2018-12-23T10:20:27.275Z,101294.15
2018-12-23T10:22:55.615Z,101293.59
2018-12-23T10:25:23.949Z,101295.68
2018-12-23T10:27:52.287Z,101284.94
2018-12-23T10:30:20.627Z,101277.55
2018-12-23T10:32:48.997Z,101275.72
2018-12-23T10:35:17.340Z,101270.78
2018-12-23T10:37:45.681Z,101268.83
2018-12-23T10:40:14.044Z,101265.87
2018-12-23T10:42:42.389Z,101266.49
2018-12-23T10:45:10.729Z,101262.56
2018-12-23T10:47:39.080Z,101256.27
2018-12-23T10:50:07.488Z,101253.86
2018-12-23T10:52:35.854Z,101253.45
2018-12-23T10:55:04.286Z,101254.76
2018-12-23T10:57:32.632Z,101249.53
2018-12-23T11:00:00.956Z,101245.27
2018-12-23T11:02:29.300Z,101238.14
2018-12-23T11:04:57.814Z,101235.81
2018-12-23T11:07:26.167Z,101232.06
2018-12-23T11:10:01.600Z,101227.45
2018-12-23T11:12:22.916Z,101226.41
2018-12-23T11:14:51.289Z,101219.13
2018-12-23T11:17:19.653Z,101217.39
2018-12-23T11:19:48.830Z,101213.31
2018-12-23T11:22:17.171Z,101213.09
2018-12-23T11:24:45.532Z,101204.87
2018-12-23T11:27:13.883Z,101206.09
2018-12-23T11:29:42.212Z,101203.88
2018-12-23T11:32:10.563Z,101202.42
2018-12-23T11:34:38.913Z,101194.94
2018-12-23T11:37:07.236Z,101193.36
2018-12-23T11:39:35.574Z,101190.33
2018-12-23T11:42:03.926Z,101187.14
2018-12-23T11:44:32.553Z,101183.08
2018-12-23T11:47:01.705Z,101179.00
2018-12-23T11:49:29.840Z,101178.48
2018-12-23T11:51:58.443Z,101178.27
2018-12-23T11:54:26.564Z,101178.84
2018-12-23T11:56:54.927Z,101170.88
2018-12-23T11:59:23.284Z,101166.30
2018-12-23T12:01:51.632Z,101162.95
2018-12-23T12:04:19.991Z,101157.50
2018-12-23T12:06:48.324Z,101154.14
2018-12-23T12:09:16.670Z,101147.85
2018-12-23T12:11:45.064Z,101143.02
2018-12-23T12:14:13.403Z,101138.90
2018-12-23T12:16:41.754Z,101135.42
2018-12-23T12:19:10.122Z,101134.23
2018-12-23T12:21:38.449Z,101129.30
2018-12-23T12:24:06.968Z,101129.34
2018-12-23T12:26:35.614Z,101121.86
2018-12-23T12:29:03.948Z,101125.16
2018-12-23T12:31:33.112Z,101121.74
2018-12-23T12:34:01.493Z,101123.31
2018-12-23T12:36:29.925Z,101117.66
2018-12-23T12:38:58.257Z,101121.73
2018-12-23T12:41:26.578Z,101112.52
2018-12-23T12:43:54.964Z,101106.02
2018-12-23T12:46:24.583Z,101104.48
2018-12-23T12:48:52.110Z,101097.84
2018-12-23T12:51:20.456Z,101095.06
2018-12-23T12:53:48.822Z,101089.08
2018-12-23T12:56:17.201Z,101088.98
2018-12-23T12:58:45.548Z,101088.89
2018-12-23T13:01:13.906Z,101089.18
2018-12-23T13:03:42.249Z,101088.51
2018-12-23T13:06:10.590Z,101085.57
2018-12-23T13:08:38.923Z,101082.95
2018-12-23T13:11:07.298Z,101075.56
2018-12-23T13:13:39.093Z,101075.82
2018-12-23T13:16:07.462Z,101072.67
2018-12-23T13:18:35.842Z,101070.42
2018-12-23T13:21:04.176Z,101064.77
2018-12-23T13:23:32.518Z,101062.88
2018-12-23T13:26:00.859Z,101059.36
2018-12-23T13:28:29.208Z,101058.20
2018-12-23T13:30:57.562Z,101054.80
2018-12-23T13:33:26.326Z,101048.34
2018-12-23T13:35:54.667Z,101052.77
2018-12-23T13:38:23.055Z,101049.20
2018-12-23T13:40:52.393Z,101049.23
2018-12-23T13:43:24.009Z,101042.53
2018-12-23T13:45:56.276Z,101044.05
2018-12-23T13:48:27.691Z,101045.34
2018-12-23T13:51:02.787Z,101039.69
2018-12-23T13:53:33.031Z,101038.28
2018-12-23T13:56:08.924Z,101036.55
2018-12-23T13:58:42.283Z,101039.36
2018-12-23T14:01:10.671Z,101033.81
2018-12-23T14:03:44.004Z,101029.73
2018-12-23T14:06:14.970Z,101027.59
2018-12-23T14:08:46.976Z,101028.32
2018-12-23T14:11:21.188Z,101024.55
2018-12-23T14:13:49.546Z,101024.13
2018-12-23T14:16:17.893Z,101021.15
2018-12-23T14:18:46.287Z,101025.81
2018-12-23T14:21:14.629Z,101021.72
2018-12-23T14:23:43.001Z,101022.09
2018-12-23T14:26:11.364Z,101018.52
2018-12-23T14:28:39.783Z,101016.44
2018-12-23T14:31:08.454Z,101017.75
2018-12-23T14:33:36.572Z,101013.13
2018-12-23T14:36:04.955Z,101017.33
2018-12-23T14:38:33.317Z,101013.14
2018-12-23T14:41:01.805Z,101009.27
2018-12-23T14:43:30.142Z,101007.64
2018-12-23T14:45:58.503Z,101013.35
2018-12-23T14:48:29.521Z,101010.58
2018-12-23T14:50:57.874Z,101011.14
2018-12-23T14:53:26.252Z,101007.48
2018-12-23T14:55:54.596Z,101008.51
2018-12-23T14:58:27.959Z,101007.00
2018-12-23T15:00:56.308Z,101007.45
2018-12-23T15:03:24.960Z,101007.67
2018-12-23T15:05:53.309Z,100998.45
2018-12-23T15:08:21.656Z,101003.90
2018-12-23T15:10:50.276Z,100999.80
2018-12-23T15:13:22.478Z,100998.45
2018-12-23T15:15:50.826Z,100993.53
2018-12-23T15:18:19.214Z,100994.94
2018-12-23T15:20:47.572Z,100987.19
2018-12-23T15:23:16.039Z,100986.56
2018-12-23T15:25:44.442Z,100987.92
2018-12-23T15:28:12.791Z,100983.27
2018-12-23T15:30:41.147Z,100983.47
2018-12-23T15:33:09.680Z,100976.67
2018-12-23T15:35:38.072Z,100972.75
2018-12-23T15:38:06.425Z,100976.36
2018-12-23T15:40:34.786Z,100975.63
2018-12-23T15:43:03.172Z,100973.26
2018-12-23T15:45:31.565Z,100967.30
2018-12-23T15:47:59.969Z,100969.50
2018-12-23T15:50:28.350Z,100971.85
2018-12-23T15:52:56.712Z,100970.86
2018-12-23T15:55:25.108Z,100968.50
2018-12-23T15:57:53.434Z,100972.63
2018-12-23T16:00:21.798Z,100969.92
2018-12-23T16:02:50.226Z,100969.40
2018-12-23T16:05:18.545Z,100968.19
2018-12-23T16:07:46.902Z,100971.70
2018-12-23T16:10:15.386Z,100970.23
2018-12-23T16:12:43.741Z,100959.79
2018-12-23T16:15:12.114Z,100961.77
2018-12-23T16:17:40.478Z,100963.39
2018-12-23T16:20:08.854Z,100961.20
2018-12-23T16:22:37.199Z,100963.66
2018-12-23T16:25:06.139Z,100961.88
2018-12-23T16:27:34.855Z,100961.77
2018-12-23T16:30:03.599Z,100959.43
2018-12-23T16:32:32.201Z,100962.41
2018-12-23T16:35:00.330Z,100967.95
2018-12-23T16:37:28.680Z,100963.66
2018-12-23T16:39:59.683Z,100962.58
2018-12-23T16:42:25.777Z,100966.48
2018-12-23T16:44:54.137Z,100965.70
2018-12-23T16:47:23.091Z,100962.30
2018-12-23T16:49:51.506Z,100966.75
2018-12-23T16:52:19.864Z,100969.67
2018-12-23T16:54:48.427Z,100967.69
2018-12-23T16:57:16.543Z,100967.58
2018-12-23T16:59:44.898Z,100971.31
2018-12-23T17:02:13.486Z,100974.28
2018-12-23T17:04:41.635Z,100971.31
2018-12-23T17:07:10.242Z,100972.34
2018-12-23T17:09:38.589Z,100978.05
2018-12-23T17:12:06.919Z,100978.78
2018-12-23T17:14:35.261Z,100978.79
2018-12-23T17:17:03.666Z,100982.81
2018-12-23T17:19:31.935Z,100980.55
2018-12-23T17:22:00.315Z,100980.13
2018-12-23T17:24:28.631Z,100984.62
2018-12-23T17:26:56.966Z,100984.42
2018-12-23T17:29:25.318Z,100982.87
2018-12-23T17:31:54.556Z,100978.47
2018-12-23T17:34:22.904Z,100978.69
2018-12-23T17:36:51.282Z,100973.56
2018-12-23T17:39:19.647Z,100971.83
2018-12-23T17:41:48.068Z,100977.95
2018-12-23T17:44:16.324Z,100974.28
2018-12-23T17:46:44.669Z,100978.27
2018-12-23T17:49:13.084Z,100978.33
2018-12-23T17:51:41.413Z,100980.25
2018-12-23T17:54:09.759Z,100977.68
2018-12-23T17:56:38.109Z,100978.48
2018-12-23T17:59:06.437Z,100981.67
2018-12-23T18:01:34.793Z,100984.66
2018-12-23T18:04:03.132Z,100981.73
2018-12-23T18:06:31.462Z,100982.47
2018-12-23T18:08:59.821Z,100980.36
2018-12-23T18:11:28.166Z,100979.31
2018-12-23T18:13:56.508Z,100983.14
2018-12-23T18:16:24.934Z,100982.25
2018-12-23T18:18:53.181Z,100980.30
2018-12-23T18:21:21.539Z,100978.05
2018-12-23T18:23:49.861Z,100976.84
2018-12-23T18:26:18.194Z,100975.38
2018-12-23T18:28:46.526Z,100981.45
2018-12-23T18:31:15.114Z,100980.50
2018-12-23T18:33:43.236Z,100983.11
2018-12-23T18:36:11.574Z,100984.20
2018-12-23T18:38:39.924Z,100986.09
2018-12-23T18:41:08.259Z,100987.11
2018-12-23T18:43:36.616Z,100981.15
2018-12-23T18:46:04.962Z,100983.66
2018-12-23T18:48:33.298Z,100985.28
2018-12-23T18:51:01.634Z,100985.11
2018-12-23T18:53:29.962Z,100985.91
2018-12-23T18:55:58.298Z,100987.48
2018-12-23T18:58:26.623Z,100988.02
2018-12-23T19:00:54.976Z,100988.81
2018-12-23T19:03:23.368Z,100990.22
2018-12-23T19:05:52.078Z,100994.41
2018-12-23T19:08:20.997Z,100990.73
2018-12-23T19:10:52.199Z,100992.78
2018-12-23T19:13:24.098Z,100992.93
2018-12-23T19:16:02.179Z,100994.45
2018-12-23T19:18:36.250Z,101000.79
2018-12-23T19:21:06.666Z,101000.27
2018-12-23T19:23:40.835Z,101004.35
2018-12-23T19:26:21.072Z,100998.08
2018-12-23T19:28:49.956Z,101006.77
2018-12-23T19:31:25.028Z,101003.34
2018-12-23T19:33:53.371Z,101009.84
2018-12-23T19:36:22.724Z,101006.75
2018-12-23T19:38:53.500Z,101007.79
2018-12-23T19:41:33.430Z,101005.45
2018-12-23T19:44:06.257Z,101004.86
2018-12-23T19:46:45.321Z,101003.45
2018-12-23T19:49:19.710Z,101001.71
2018-12-23T19:51:56.814Z,101003.80
2018-12-23T19:54:25.226Z,101001.45
2018-12-23T19:57:00.291Z,101002.97
2018-12-23T19:59:33.264Z,101006.94
2018-12-23T20:02:04.612Z,101008.09
2018-12-23T20:04:35.639Z,101013.23
2018-12-23T20:07:15.904Z,101009.84
2018-12-23T20:09:45.186Z,101010.15
2018-12-23T20:12:18.245Z,101009.77
2018-12-23T20:14:51.966Z,101011.98
2018-12-23T20:17:23.589Z,101012.53
2018-12-23T20:19:53.686Z,101013.41
2018-12-23T20:22:26.630Z,101013.41
2018-12-23T20:24:58.775Z,101015.47
2018-12-23T20:27:31.695Z,101013.13
2018-12-23T20:30:05.847Z,101015.25
2018-12-23T20:32:40.294Z,101012.38
2018-12-23T20:35:15.105Z,101014.73
2018-12-23T20:37:43.549Z,101016.82
2018-12-23T20:40:24.572Z,101014.16
2018-12-23T20:42:58.527Z,101019.14
2018-12-23T20:45:26.906Z,101017.41
2018-12-23T20:47:56.748Z,101017.20
2018-12-23T20:50:31.576Z,101020.59
2018-12-23T20:53:05.613Z,101023.48
2018-12-23T20:55:35.506Z,101022.02
2018-12-23T20:58:11.731Z,101022.91
2018-12-23T21:00:50.454Z,101022.48
2018-12-23T21:03:27.402Z,101024.91
2018-12-23T21:06:01.570Z,101026.22
2018-12-23T21:11:31.198Z,101026.69
2018-12-23T21:14:04.246Z,101022.28
2018-12-23T21:16:42.127Z,101021.16
2018-12-23T21:19:20.201Z,101020.36
2018-12-23T21:21:56.351Z,101022.34
2018-12-23T21:24:29.406Z,101022.28
2018-12-23T21:27:04.572Z,101019.15
2018-12-23T21:29:34.468Z,101023.37
2018-12-23T21:32:04.958Z,101022.09
2018-12-23T21:34:45.058Z,101019.20
2018-12-23T21:37:22.761Z,101020.06
2018-12-23T21:39:57.734Z,101020.41
2018-12-23T21:42:30.464Z,101020.22
2018-12-23T21:45:00.750Z,101018.22
2018-12-23T21:47:35.418Z,101022.98
2018-12-23T21:50:09.368Z,101021.55
2018-12-23T21:52:39.854Z,101020.98
2018-12-23T21:55:14.472Z,101024.61
2018-12-23T21:57:43.441Z,101028.69
2018-12-23T22:00:15.346Z,101029.63
2018-12-23T22:02:45.848Z,101029.63
2018-12-23T22:05:16.204Z,101031.13
2018-12-23T22:07:51.475Z,101033.28
2018-12-23T22:10:20.555Z,101027.20
2018-12-23T22:12:54.766Z,101031.62
2018-12-23T22:15:23.117Z,101032.05
2018-12-23T22:17:51.579Z,101029.59
2018-12-23T22:20:20.012Z,101030.70
2018-12-23T22:22:48.340Z,101031.16
2018-12-23T22:25:16.732Z,101039.02
2018-12-23T22:27:45.277Z,101035.77
2018-12-23T22:30:13.478Z,101037.49
2018-12-23T22:32:41.835Z,101032.58
2018-12-23T22:35:10.459Z,101029.59
2018-12-23T22:37:38.795Z,101031.27
2018-12-23T22:40:07.284Z,101030.59
2018-12-23T22:42:35.697Z,101031.68
2018-12-23T22:45:04.034Z,101031.28
2018-12-23T22:47:32.621Z,101030.70
2018-12-23T22:50:01.023Z,101032.06
2018-12-23T22:52:29.498Z,101029.17
2018-12-23T22:54:57.847Z,101029.69
2018-12-23T22:57:26.183Z,101033.89
2018-12-23T22:59:54.528Z,101030.72
2018-12-23T23:02:22.864Z,101031.81
2018-12-23T23:04:51.211Z,101030.98
2018-12-23T23:07:20.142Z,101029.22
2018-12-23T23:09:48.475Z,101026.95
2018-12-23T23:12:16.808Z,101028.11
2018-12-23T23:14:45.156Z,101029.48
2018-12-23T23:17:13.541Z,101030.50
2018-12-23T23:19:41.880Z,101042.33
2018-12-23T23:22:10.846Z,101037.13
2018-12-23T23:24:39.727Z,101036.50
2018-12-23T23:27:08.066Z,101039.84
2018-12-23T23:29:36.167Z,101035.89
2018-12-23T23:32:04.516Z,101039.55
2018-12-23T23:34:33.133Z,101037.36
2018-12-23T23:37:01.317Z,101042.54
2018-12-23T23:39:30.011Z,101038.86
2018-12-23T23:41:58.815Z,101036.66
2018-12-23T23:44:27.391Z,101040.84
2018-12-23T23:46:56.295Z,101044.56
2018-12-23T23:49:24.442Z,101046.95
2018-12-23T23:51:52.774Z,101054.27
2018-12-23T23:54:21.342Z,101047.24
2018-12-23T23:56:49.444Z,101053.03
2018-12-23T23:59:17.794Z,101054.44
